createdAt,value
2022-07-25T00:00:24.415Z,101100.47
2022-07-25T00:02:50.789Z,101101.91
2022-07-25T00:05:17.247Z,101096.88
2022-07-25T00:07:43.604Z,101091.81
2022-07-25T00:10:10.213Z,101085.31
2022-07-25T00:12:36.563Z,101081.59
2022-07-25T00:15:02.952Z,101084.56
2022-07-25T00:17:29.300Z,101080.94
2022-07-25T00:19:55.647Z,101070.06
2022-07-25T00:22:22.007Z,101069.41
2022-07-25T00:24:48.359Z,101055.53
2022-07-25T00:27:14.796Z,101062.81
2022-07-25T00:29:41.140Z,101060.66
2022-07-25T00:32:07.507Z,101057.75
2022-07-25T00:34:33.889Z,101062.81
2022-07-25T00:37:00.247Z,101061.38
2022-07-25T00:39:26.586Z,101057.75
2022-07-25T00:41:52.937Z,101060.56
2022-07-25T00:44:23.126Z,101052.63
2022-07-25T00:46:51.182Z,101062.03
2022-07-25T00:49:17.658Z,101052.72
2022-07-25T00:51:44.267Z,101046.94
2022-07-25T00:54:10.625Z,101050.56
2022-07-25T00:56:37.120Z,101046.94
2022-07-25T00:59:03.475Z,101037.53
2022-07-25T01:01:29.892Z,101032.41
2022-07-25T01:03:56.331Z,101043.97
2022-07-25T01:06:24.796Z,101032.41
2022-07-25T01:08:51.271Z,101036.81
2022-07-25T01:11:17.634Z,101028.16
2022-07-25T01:13:43.990Z,101026.66
2022-07-25T01:16:10.401Z,101020.88
2022-07-25T01:18:37.099Z,101033.16
2022-07-25T01:21:03.588Z,101023.69
2022-07-25T01:23:29.991Z,101023.84
2022-07-25T01:25:56.357Z,101021.69
2022-07-25T01:28:22.712Z,101023.84
2022-07-25T01:30:49.148Z,101026.06
2022-07-25T01:33:16.208Z,101022.50
2022-07-25T01:35:43.618Z,101023.84
2022-07-25T01:38:10.085Z,101019.63
2022-07-25T01:40:36.455Z,101013.78
2022-07-25T01:43:02.818Z,101007.84
2022-07-25T01:45:29.180Z,101008.59
2022-07-25T01:47:55.534Z,101005.63
2022-07-25T01:50:21.894Z,101009.31
2022-07-25T01:52:48.251Z,101002.06
2022-07-25T01:55:14.630Z,101004.88
2022-07-25T01:57:41.086Z,101001.34
2022-07-25T02:00:16.132Z,101002.06
2022-07-25T02:02:42.740Z,101004.88
2022-07-25T02:05:09.209Z,100998.38
2022-07-25T02:07:35.628Z,100982.50
2022-07-25T02:10:02.019Z,100996.09
2022-07-25T02:12:28.383Z,100991.72
2022-07-25T02:14:54.728Z,100986.06
2022-07-25T02:17:24.396Z,100976.47
2022-07-25T02:19:50.831Z,100970.03
2022-07-25T02:22:17.230Z,100976.53
2022-07-25T02:24:43.652Z,100975.09
2022-07-25T02:27:10.014Z,100967.16
2022-07-25T02:29:36.373Z,100972.19
2022-07-25T02:32:02.732Z,100962.78
2022-07-25T02:34:29.092Z,100967.81
2022-07-25T02:36:55.442Z,100959.16
2022-07-25T02:39:21.790Z,100955.53
2022-07-25T02:41:48.141Z,100956.94
2022-07-25T02:44:14.489Z,100959.81
2022-07-25T02:46:40.851Z,100954.06
2022-07-25T02:49:07.269Z,100949.59
2022-07-25T02:51:33.679Z,100942.41
2022-07-25T02:54:01.077Z,100948.19
2022-07-25T02:56:30.195Z,100946.69
2022-07-25T02:58:57.299Z,100940.94
2022-07-25T03:01:23.761Z,100936.56
2022-07-25T03:03:50.286Z,100929.31
2022-07-25T03:06:16.746Z,100932.88
2022-07-25T03:08:43.089Z,100926.34
2022-07-25T03:11:09.489Z,100930.72
2022-07-25T03:13:35.869Z,100926.34
2022-07-25T03:16:02.220Z,100926.34
2022-07-25T03:18:28.566Z,100923.47
2022-07-25T03:20:54.927Z,100926.34
2022-07-25T03:23:21.292Z,100925.59
2022-07-25T03:25:47.686Z,100919.81
2022-07-25T03:28:14.034Z,100924.88
2022-07-25T03:30:40.506Z,100916.84
2022-07-25T03:33:06.862Z,100914.72
2022-07-25T03:35:33.205Z,100917.53
2022-07-25T03:38:01.671Z,100913.25
2022-07-25T03:40:28.078Z,100911.75
2022-07-25T03:42:54.456Z,100907.38
2022-07-25T03:45:20.822Z,100898.72
2022-07-25T03:47:47.190Z,100899.50
2022-07-25T03:50:13.553Z,100906.00
2022-07-25T03:52:39.944Z,100892.94
2022-07-25T03:55:07.032Z,100895.84
2022-07-25T03:57:33.383Z,100892.94
2022-07-25T03:59:59.769Z,100897.91
2022-07-25T04:02:26.201Z,100894.38
2022-07-25T04:04:52.603Z,100894.38
2022-07-25T04:07:19.284Z,100887.09
2022-07-25T04:09:45.667Z,100897.25
2022-07-25T04:12:12.038Z,100892.13
2022-07-25T04:14:38.408Z,100896.59
2022-07-25T04:17:06.260Z,100890.75
2022-07-25T04:19:32.791Z,100884.28
2022-07-25T04:21:59.197Z,100890.06
2022-07-25T04:24:25.554Z,100884.28
2022-07-25T04:26:51.900Z,100873.41
2022-07-25T04:29:18.242Z,100876.63
2022-07-25T04:31:44.689Z,100871.16
2022-07-25T04:34:11.075Z,100874.06
2022-07-25T04:36:37.439Z,100866.63
2022-07-25T04:39:14.747Z,100861.75
2022-07-25T04:41:41.181Z,100860.44
2022-07-25T04:44:08.851Z,100851.72
2022-07-25T04:46:35.947Z,100844.56
2022-07-25T04:49:02.396Z,100833.59
2022-07-25T04:51:28.791Z,100833.59
2022-07-25T04:53:55.147Z,100826.16
2022-07-25T04:56:21.503Z,100818.75
2022-07-25T04:58:47.881Z,100816.03
2022-07-25T05:01:14.399Z,100815.88
2022-07-25T05:03:40.813Z,100814.88
2022-07-25T05:06:16.783Z,100815.81
2022-07-25T05:08:43.253Z,100813.22
2022-07-25T05:11:09.947Z,100811.91
2022-07-25T05:13:36.309Z,100809.63
2022-07-25T05:16:03.183Z,100809.09
2022-07-25T05:18:29.608Z,100812.06
2022-07-25T05:20:55.962Z,100799.03
2022-07-25T05:23:22.421Z,100803.47
2022-07-25T05:25:49.311Z,100801.84
2022-07-25T05:28:17.488Z,100791.84
2022-07-25T05:30:43.847Z,100791.19
2022-07-25T05:33:10.190Z,100799.16
2022-07-25T05:35:36.546Z,100799.25
2022-07-25T05:38:02.895Z,100793.56
2022-07-25T05:40:29.250Z,100791.56
2022-07-25T05:43:00.810Z,100779.22
2022-07-25T05:45:29.215Z,100787.88
2022-07-25T05:47:55.559Z,100787.78
2022-07-25T05:50:21.920Z,100793.28
2022-07-25T05:52:48.378Z,100779.22
2022-07-25T05:55:15.866Z,100777.66
2022-07-25T05:57:42.281Z,100774.16
2022-07-25T06:00:09.167Z,100776.47
2022-07-25T06:02:35.747Z,100769.97
2022-07-25T06:05:02.722Z,100760.63
2022-07-25T06:07:29.087Z,100762.78
2022-07-25T06:09:55.450Z,100762.19
2022-07-25T06:12:21.831Z,100759.34
2022-07-25T06:14:50.713Z,100756.56
2022-07-25T06:17:17.134Z,100759.50
2022-07-25T06:19:43.518Z,100752.28
2022-07-25T06:22:11.254Z,100749.59
2022-07-25T06:24:38.067Z,100740.13
2022-07-25T06:27:04.424Z,100742.41
2022-07-25T06:29:30.844Z,100739.59
2022-07-25T06:31:57.604Z,100729.59
2022-07-25T06:34:28.520Z,100732.56
2022-07-25T06:36:55.212Z,100728.31
2022-07-25T06:39:21.585Z,100731.28
2022-07-25T06:41:47.957Z,100718.34
2022-07-25T06:44:17.250Z,100720.53
2022-07-25T06:46:43.675Z,100728.53
2022-07-25T06:49:10.174Z,100721.41
2022-07-25T06:51:36.571Z,100721.38
2022-07-25T06:54:03.289Z,100715.59
2022-07-25T06:56:31.520Z,100702.75
2022-07-25T06:58:58.084Z,100705.59
2022-07-25T07:01:24.504Z,100701.28
2022-07-25T07:03:51.000Z,100703.44
2022-07-25T07:06:17.413Z,100698.38
2022-07-25T07:08:43.777Z,100686.75
2022-07-25T07:11:10.134Z,100692.53
2022-07-25T07:13:36.513Z,100689.13
2022-07-25T07:16:03.602Z,100684.72
2022-07-25T07:18:30.002Z,100675.22
2022-07-25T07:20:56.389Z,100676.72
2022-07-25T07:23:22.755Z,100673.91
2022-07-25T07:25:51.058Z,100672.41
2022-07-25T07:28:17.414Z,100672.41
2022-07-25T07:31:14.628Z,100675.34
2022-07-25T07:33:30.311Z,100665.50
2022-07-25T07:35:57.060Z,100661.06
2022-07-25T07:38:25.876Z,100658.91
2022-07-25T07:40:52.595Z,100655.34
2022-07-25T07:43:18.991Z,100661.13
2022-07-25T07:45:45.340Z,100654.63
2022-07-25T07:48:11.727Z,100663.38
2022-07-25T07:50:38.301Z,100658.16
2022-07-25T07:53:04.683Z,100647.53
2022-07-25T07:55:48.117Z,100649.75
2022-07-25T07:58:15.704Z,100652.63
2022-07-25T08:00:42.541Z,100651.19
2022-07-25T08:03:09.011Z,100644.13
2022-07-25T08:05:36.589Z,100636.22
2022-07-25T08:08:04.195Z,100636.97
2022-07-25T08:10:31.229Z,100636.34
2022-07-25T08:12:57.961Z,100639.22
2022-07-25T08:15:24.352Z,100631.25
2022-07-25T08:17:50.983Z,100636.97
2022-07-25T08:20:36.877Z,100632.66
2022-07-25T08:23:04.076Z,100631.19
2022-07-25T08:25:31.566Z,100625.41
2022-07-25T08:28:00.591Z,100632.66
2022-07-25T08:30:29.411Z,100625.41
2022-07-25T08:32:56.707Z,100621.78
2022-07-25T08:35:24.135Z,100616.75
2022-07-25T08:37:50.534Z,100617.47
2022-07-25T08:40:17.333Z,100608.09
2022-07-25T08:42:43.726Z,100606.59
2022-07-25T08:45:10.510Z,100608.81
2022-07-25T08:47:36.929Z,100609.56
2022-07-25T08:50:07.050Z,100605.94
2022-07-25T08:52:35.480Z,100603.03
2022-07-25T08:55:02.817Z,100605.25
2022-07-25T08:57:29.220Z,100603.84
2022-07-25T08:59:59.038Z,100602.38
2022-07-25T09:02:26.917Z,100598.00
2022-07-25T09:04:53.870Z,100593.72
2022-07-25T09:07:49.571Z,100590.09
2022-07-25T09:10:26.651Z,100582.16
2022-07-25T09:12:56.529Z,100576.38
2022-07-25T09:15:23.557Z,100576.38
2022-07-25T09:17:51.468Z,100567.72
2022-07-25T09:20:18.622Z,100565.56
2022-07-25T09:22:45.109Z,100563.28
2022-07-25T09:25:25.301Z,100562.31
2022-07-25T09:27:51.891Z,100552.97
2022-07-25T09:30:18.509Z,100551.84
2022-07-25T09:32:44.895Z,100554.44
2022-07-25T09:35:11.262Z,100547.28
2022-07-25T09:37:37.922Z,100543.59
2022-07-25T09:40:11.656Z,100539.41
2022-07-25T09:42:38.896Z,100533.00
2022-07-25T09:45:08.092Z,100528.22
2022-07-25T09:47:35.122Z,100526.00
2022-07-25T09:50:01.495Z,100524.28
2022-07-25T09:52:27.888Z,100516.28
2022-07-25T09:54:57.006Z,100515.28
2022-07-25T09:57:26.118Z,100512.75
2022-07-25T09:59:53.860Z,100504.72
2022-07-25T10:02:26.683Z,100504.72
2022-07-25T10:04:59.819Z,100499.03
2022-07-25T10:07:31.177Z,100503.22
2022-07-25T10:09:57.954Z,100494.72
2022-07-25T10:12:24.331Z,100490.56
2022-07-25T10:15:04.306Z,100484.63
2022-07-25T10:17:30.695Z,100483.31
2022-07-25T10:19:59.067Z,100481.78
2022-07-25T10:22:55.101Z,100470.44
2022-07-25T10:25:21.932Z,100474.94
2022-07-25T10:27:49.007Z,100461.94
2022-07-25T10:30:23.227Z,100467.72
2022-07-25T10:32:56.561Z,100459.59
2022-07-25T10:35:22.931Z,100454.66
2022-07-25T10:37:50.524Z,100443.91
2022-07-25T10:40:26.589Z,100444.03
2022-07-25T10:43:02.706Z,100441.75
2022-07-25T10:45:38.101Z,100450.97
2022-07-25T10:48:11.309Z,100435.63
2022-07-25T10:50:57.019Z,100437.00
2022-07-25T10:53:38.255Z,100424.06
2022-07-25T10:56:06.590Z,100418.47
2022-07-25T10:58:43.266Z,100406.38
2022-07-25T11:01:09.653Z,100412.97
2022-07-25T11:03:36.053Z,100418.75
2022-07-25T11:06:02.402Z,100407.28
2022-07-25T11:08:32.523Z,100402.28
2022-07-25T11:10:58.871Z,100402.78
2022-07-25T11:13:25.213Z,100399.06
2022-07-25T11:15:51.578Z,100393.47
2022-07-25T11:18:18.544Z,100397.19
2022-07-25T11:20:44.904Z,100388.19
2022-07-25T11:23:11.259Z,100384.19
2022-07-25T11:25:37.715Z,100385.69
2022-07-25T11:28:04.175Z,100375.56
2022-07-25T11:30:31.055Z,100375.78
2022-07-25T11:32:57.954Z,100372.75
2022-07-25T11:35:27.986Z,100371.41
2022-07-25T11:37:54.401Z,100376.38
2022-07-25T11:40:20.762Z,100366.56
2022-07-25T11:42:50.949Z,100354.88
2022-07-25T11:45:27.643Z,100349.88
2022-07-25T11:48:05.015Z,100355.63
2022-07-25T11:50:31.720Z,100353.66
2022-07-25T11:52:58.769Z,100344.13
2022-07-25T11:55:28.395Z,100339.78
2022-07-25T11:57:57.542Z,100338.22
2022-07-25T12:00:23.919Z,100335.25
2022-07-25T12:02:50.456Z,100339.66
2022-07-25T12:05:18.095Z,100330.16
2022-07-25T12:07:45.095Z,100306.34
2022-07-25T12:10:15.910Z,100314.03
2022-07-25T12:12:42.901Z,100310.13
2022-07-25T12:15:10.305Z,100308.50
2022-07-25T12:17:36.790Z,100304.91
2022-07-25T12:20:05.686Z,100302.00
2022-07-25T12:22:35.543Z,100296.13
2022-07-25T12:25:01.920Z,100293.81
2022-07-25T12:27:28.292Z,100298.84
2022-07-25T12:29:54.758Z,100299.56
2022-07-25T12:32:21.126Z,100287.94
2022-07-25T12:34:47.517Z,100294.94
2022-07-25T12:37:13.980Z,100282.50
2022-07-25T12:39:40.403Z,100281.28
2022-07-25T12:42:06.750Z,100281.44
2022-07-25T12:44:33.119Z,100288.72
2022-07-25T12:46:59.466Z,100278.63
2022-07-25T12:49:25.902Z,100261.44
2022-07-25T12:51:57.670Z,100272.47
2022-07-25T12:54:24.495Z,100258.84
2022-07-25T12:56:50.853Z,100271.19
2022-07-25T12:59:17.211Z,100266.75
2022-07-25T13:01:43.652Z,100258.44
2022-07-25T13:04:10.356Z,100253.13
2022-07-25T13:06:38.797Z,100252.97
2022-07-25T13:09:05.781Z,100252.31
2022-07-25T13:11:32.340Z,100249.38
2022-07-25T13:13:58.705Z,100246.53
2022-07-25T13:16:25.101Z,100239.41
2022-07-25T13:18:51.954Z,100236.63
2022-07-25T13:21:18.766Z,100237.34
2022-07-25T13:23:45.135Z,100235.19
2022-07-25T13:26:11.485Z,100239.59
2022-07-25T13:28:37.844Z,100233.81
2022-07-25T13:31:06.948Z,100230.16
2022-07-25T13:33:34.039Z,100217.91
2022-07-25T13:36:00.394Z,100223.72
2022-07-25T13:38:26.752Z,100220.09
2022-07-25T13:40:58.463Z,100215.81
2022-07-25T13:43:25.286Z,100208.53
2022-07-25T13:45:51.686Z,100209.19
2022-07-25T13:48:29.372Z,100189.06
2022-07-25T13:50:56.362Z,100186.06
2022-07-25T13:53:26.634Z,100187.47
2022-07-25T13:55:56.115Z,100190.47
2022-07-25T13:58:22.473Z,100185.94
2022-07-25T14:00:48.894Z,100188.84
2022-07-25T14:03:15.279Z,100186.78
2022-07-25T14:05:41.671Z,100190.56
2022-07-25T14:08:08.223Z,100179.09
2022-07-25T14:10:34.588Z,100177.00
2022-07-25T14:13:01.044Z,100177.00
2022-07-25T14:15:27.434Z,100181.03
2022-07-25T14:17:53.791Z,100175.00
2022-07-25T14:20:20.155Z,100167.69
2022-07-25T14:22:46.516Z,100158.25
2022-07-25T14:25:12.892Z,100166.91
2022-07-25T14:27:39.412Z,100167.22
2022-07-25T14:30:06.156Z,100152.84
2022-07-25T14:32:32.509Z,100156.50
2022-07-25T14:35:00.834Z,100158.50
2022-07-25T14:37:27.224Z,100158.75
2022-07-25T14:39:53.676Z,100157.44
2022-07-25T14:42:20.092Z,100151.72
2022-07-25T14:44:46.493Z,100142.97
2022-07-25T14:47:12.994Z,100137.88
2022-07-25T14:49:39.912Z,100139.94
2022-07-25T14:52:06.304Z,100132.81
2022-07-25T14:54:32.657Z,100140.06
2022-07-25T14:56:59.005Z,100141.53
2022-07-25T14:59:25.377Z,100127.09
2022-07-25T15:01:51.733Z,100113.88
2022-07-25T15:04:22.003Z,100109.66
2022-07-25T15:06:48.783Z,100114.19
2022-07-25T15:09:15.138Z,100113.44
2022-07-25T15:11:41.503Z,100105.47
2022-07-25T15:14:07.881Z,100106.91
2022-07-25T15:16:34.295Z,100103.28
2022-07-25T15:19:16.990Z,100093.75
2022-07-25T15:21:43.911Z,100089.66
2022-07-25T15:24:10.309Z,100081.78
2022-07-25T15:26:36.685Z,100072.94
2022-07-25T15:29:03.238Z,100067.09
2022-07-25T15:31:29.756Z,100059.00
2022-07-25T15:33:56.204Z,100060.66
2022-07-25T15:36:27.096Z,100051.81
2022-07-25T15:38:55.619Z,100054.06
2022-07-25T15:41:21.981Z,100045.94
2022-07-25T15:43:48.353Z,100049.53
2022-07-25T15:46:14.743Z,100047.56
2022-07-25T15:48:41.197Z,100043.28
2022-07-25T15:51:07.657Z,100032.38
2022-07-25T15:53:34.034Z,100033.06
2022-07-25T15:56:00.489Z,100023.72
2022-07-25T15:58:27.090Z,100027.25
2022-07-25T16:00:53.601Z,100014.28
2022-07-25T16:03:21.497Z,100014.34
2022-07-25T16:05:47.848Z,100009.34
2022-07-25T16:08:14.209Z,100004.31
2022-07-25T16:10:40.659Z,99994.16
2022-07-25T16:13:07.468Z,99995.38
2022-07-25T16:15:33.879Z,99987.91
2022-07-25T16:18:02.767Z,99991.47
2022-07-25T16:20:31.118Z,99988.56
2022-07-25T16:22:59.008Z,99994.31
2022-07-25T16:25:25.426Z,99987.75
2022-07-25T16:27:51.995Z,99984.09
2022-07-25T16:30:18.378Z,99985.50
2022-07-25T16:32:44.747Z,100003.56
2022-07-25T16:35:11.106Z,100074.56
2022-07-25T16:37:37.543Z,100089.72
2022-07-25T16:40:04.242Z,100100.59
2022-07-25T16:42:30.602Z,100091.13
2022-07-25T16:44:57.152Z,100101.97
2022-07-25T16:47:24.863Z,100087.47
2022-07-25T16:49:51.331Z,100083.81
2022-07-25T16:52:17.686Z,100089.63
2022-07-25T16:54:44.042Z,100080.16
2022-07-25T16:57:10.398Z,100076.50
2022-07-25T16:59:36.779Z,100076.50
2022-07-25T17:02:04.007Z,100059.84
2022-07-25T17:04:30.490Z,100054.00
2022-07-25T17:06:56.866Z,100058.31
2022-07-25T17:09:25.114Z,100074.25
2022-07-25T17:11:51.471Z,100078.59
2022-07-25T17:14:17.845Z,100077.09
2022-07-25T17:16:44.801Z,100074.91
2022-07-25T17:19:11.445Z,100067.66
2022-07-25T17:21:38.017Z,100065.44
2022-07-25T17:24:04.504Z,100077.03
2022-07-25T17:26:30.894Z,100087.16
2022-07-25T17:28:58.374Z,100097.25
2022-07-25T17:31:24.906Z,100113.91
2022-07-25T17:33:51.426Z,100125.50
2022-07-25T17:36:17.795Z,100141.41
2022-07-25T17:38:44.179Z,100145.72
2022-07-25T17:41:10.750Z,100139.19
2022-07-25T17:43:38.299Z,100146.44
2022-07-25T17:46:05.167Z,100164.50
2022-07-25T17:48:31.600Z,100181.13
2022-07-25T17:50:57.993Z,100192.72
2022-07-25T17:53:24.369Z,100174.63
2022-07-25T17:55:50.767Z,100149.97
2022-07-25T17:58:17.118Z,100137.66
2022-07-25T18:00:43.491Z,100141.28
2022-07-25T18:03:09.924Z,100152.91
2022-07-25T18:05:36.378Z,100163.09
2022-07-25T18:08:03.059Z,100184.84
2022-07-25T18:10:29.563Z,100177.59
2022-07-25T18:12:55.915Z,100168.91
2022-07-25T18:15:22.269Z,100176.88
2022-07-25T18:17:48.624Z,100160.97
2022-07-25T18:20:15.330Z,100169.63
2022-07-25T18:22:41.764Z,100155.91
2022-07-25T18:25:10.449Z,100162.41
2022-07-25T18:27:37.247Z,100162.41
2022-07-25T18:30:05.904Z,100157.38
2022-07-25T18:32:32.274Z,100158.09
2022-07-25T18:34:58.647Z,100163.88
2022-07-25T18:37:25.615Z,100163.88
2022-07-25T18:39:51.989Z,100171.09
2022-07-25T18:42:18.338Z,100158.06
2022-07-25T18:44:44.756Z,100166.75
2022-07-25T18:47:11.126Z,100156.66
2022-07-25T18:49:37.536Z,100156.66
2022-07-25T18:52:04.120Z,100150.84
2022-07-25T18:54:30.515Z,100145.03
2022-07-25T18:56:56.881Z,100143.59
2022-07-25T18:59:25.311Z,100155.91
2022-07-25T19:01:51.903Z,100155.16
2022-07-25T19:04:18.594Z,100155.16
2022-07-25T19:06:44.973Z,100150.84
2022-07-25T19:09:11.334Z,100156.59
2022-07-25T19:11:41.983Z,100149.38
2022-07-25T19:14:09.195Z,100159.50
2022-07-25T19:16:35.825Z,100160.97
2022-07-25T19:19:02.233Z,100172.53
2022-07-25T19:21:28.578Z,100168.19
2022-07-25T19:23:54.937Z,100166.03
2022-07-25T19:26:22.287Z,100169.69
2022-07-25T19:28:48.926Z,100171.88
2022-07-25T19:31:15.405Z,100165.41
2022-07-25T19:33:42.050Z,100182.78
2022-07-25T19:36:08.606Z,100203.09
2022-07-25T19:38:35.549Z,100276.84
2022-07-25T19:41:02.210Z,100262.31
2022-07-25T19:43:28.595Z,100270.16
2022-07-25T19:45:54.973Z,100286.16
2022-07-25T19:48:24.492Z,100301.44
2022-07-25T19:50:51.232Z,100304.34
2022-07-25T19:53:17.594Z,100297.81
2022-07-25T19:55:43.962Z,100297.81
2022-07-25T19:58:10.350Z,100288.38
2022-07-25T20:00:39.729Z,100278.25
2022-07-25T20:03:06.151Z,100279.69
2022-07-25T20:05:32.552Z,100273.91
2022-07-25T20:07:58.934Z,100272.44
2022-07-25T20:10:25.288Z,100273.88
2022-07-25T20:12:51.643Z,100278.88
2022-07-25T20:15:18.004Z,100287.56
2022-07-25T20:17:44.389Z,100283.94
2022-07-25T20:20:10.829Z,100301.31
2022-07-25T20:22:41.909Z,100304.19
2022-07-25T20:25:09.688Z,100315.75
2022-07-25T20:27:36.052Z,100316.50
2022-07-25T20:30:03.796Z,100320.81
2022-07-25T20:32:30.269Z,100330.19
2022-07-25T20:34:56.645Z,100340.28
2022-07-25T20:37:22.986Z,100359.81
2022-07-25T20:39:51.682Z,100364.88
2022-07-25T20:42:18.032Z,100377.84
2022-07-25T20:44:44.390Z,100385.13
2022-07-25T20:47:13.497Z,100376.44
2022-07-25T20:49:39.862Z,100372.78
2022-07-25T20:52:09.282Z,100392.31
2022-07-25T20:54:36.489Z,100394.53
2022-07-25T20:57:03.420Z,100403.22
2022-07-25T20:59:29.825Z,100402.50
2022-07-25T21:01:56.255Z,100393.06
2022-07-25T21:04:22.659Z,100399.59
2022-07-25T21:06:49.018Z,100408.31
2022-07-25T21:09:15.414Z,100412.53
2022-07-25T21:11:41.762Z,100418.25
2022-07-25T21:14:08.548Z,100418.28
2022-07-25T21:16:35.212Z,100419.00
2022-07-25T21:19:01.680Z,100419.81
2022-07-25T21:21:28.058Z,100427.06
2022-07-25T21:23:54.483Z,100451.72
2022-07-25T21:26:20.846Z,100447.34
2022-07-25T21:28:47.351Z,100470.50
2022-07-25T21:31:13.705Z,100481.25
2022-07-25T21:33:41.250Z,100496.50
2022-07-25T21:36:07.808Z,100516.81
2022-07-25T21:38:35.111Z,100525.50
2022-07-25T21:41:01.579Z,100505.91
2022-07-25T21:43:27.984Z,100458.03
2022-07-25T21:45:54.400Z,100455.91
2022-07-25T21:48:42.823Z,100462.41
2022-07-25T21:51:09.587Z,100482.69
2022-07-25T21:53:45.371Z,100489.94
2022-07-25T21:56:11.726Z,100479.03
2022-07-25T21:58:38.076Z,100488.41
2022-07-25T22:01:04.471Z,100482.63
2022-07-25T22:03:30.872Z,100481.91
2022-07-25T22:05:57.257Z,100463.00
2022-07-25T22:08:23.618Z,100457.31
2022-07-25T22:10:49.997Z,100473.94
2022-07-25T22:13:16.368Z,100484.03
2022-07-25T22:15:42.762Z,100484.75
2022-07-25T22:18:09.130Z,100489.81
2022-07-25T22:20:35.502Z,100498.50
2022-07-25T22:23:01.859Z,100493.44
2022-07-25T22:25:28.230Z,100481.84
2022-07-25T22:27:54.599Z,100493.38
2022-07-25T22:30:20.965Z,100484.69
2022-07-25T22:32:47.682Z,100484.69
2022-07-25T22:35:14.073Z,100480.31
2022-07-25T22:37:40.443Z,100483.22
2022-07-25T22:40:06.931Z,100489.03
2022-07-25T22:42:33.274Z,100478.16
2022-07-25T22:44:59.636Z,100478.91
2022-07-25T22:47:25.993Z,100478.84
2022-07-25T22:49:52.370Z,100482.47
2022-07-25T22:52:18.731Z,100487.53
2022-07-25T22:54:45.089Z,100489.66
2022-07-25T22:57:11.452Z,100481.75
2022-07-25T22:59:37.820Z,100486.78
2022-07-25T23:02:04.232Z,100497.59
2022-07-25T23:04:30.648Z,100502.66
2022-07-25T23:06:57.023Z,100516.41
2022-07-25T23:09:23.534Z,100514.25
2022-07-25T23:11:50.053Z,100514.91
2022-07-25T23:14:16.857Z,100517.06
2022-07-25T23:16:43.375Z,100538.06
2022-07-25T23:19:10.270Z,100529.38
2022-07-25T23:21:36.931Z,100526.50
2022-07-25T23:24:05.467Z,100527.91
2022-07-25T23:26:31.832Z,100538.06
2022-07-25T23:28:58.356Z,100528.66
2022-07-25T23:31:24.892Z,100527.91
2022-07-25T23:33:51.302Z,100523.56
2022-07-25T23:36:17.691Z,100533.66
2022-07-25T23:38:44.071Z,100546.72
2022-07-25T23:41:10.447Z,100546.66
2022-07-25T23:43:56.915Z,100552.47
2022-07-25T23:46:27.756Z,100553.88
2022-07-25T23:48:55.667Z,100553.13
2022-07-25T23:51:22.050Z,100565.50
2022-07-25T23:53:48.407Z,100568.34
2022-07-25T23:56:20.213Z,100563.97
2022-07-25T23:58:48.992Z,100555.28
